Time;durP1;ratioP1;P1;durP2;ratioP2;P2;SDS_P1;SDS_P2;PMS_P1;PMS_P2;Temp;Humidity;BMP_temperature;BMP_pressure;BME280_temperature;BME280_humidity;BME280_pressure;Samples;Min_cycle;Max_cycle;Signal;HPM_P1;HPM_P2
2022/07/27 00:00:26;;;;;;;;;2.00;2.00;;;;;19.56;52.36;101689.63;5082294;27;58208;-68
2022/07/27 00:02:52;;;;;;;;;1.00;1.00;;;;;19.58;52.09;101686.78;5082955;27;45313;-68
2022/07/27 00:05:19;;;;;;;;;2.00;2.00;;;;;19.58;52.63;101676.00;5082297;27;46070;-66
2022/07/27 00:07:44;;;;;;;;;2.00;2.00;;;;;19.58;52.35;101679.59;5074805;27;45349;-67
2022/07/27 00:10:10;;;;;;;;;2.00;1.00;;;;;19.55;53.21;101673.56;5076623;28;45380;-67
2022/07/27 00:12:35;;;;;;;;;1.00;1.00;;;;;19.50;52.57;101673.88;5081761;27;63685;-67
2022/07/27 00:15:00;;;;;;;;;5.00;1.33;;;;;19.44;53.81;101671.66;5082381;27;45549;-67
2022/07/27 00:17:26;;;;;;;;;2.00;2.00;;;;;19.36;54.28;101676.72;5081876;27;60347;-68
2022/07/27 00:19:51;;;;;;;;;2.33;2.00;;;;;19.28;53.77;101671.91;5081886;27;60010;-67
2022/07/27 00:22:17;;;;;;;;;2.00;2.00;;;;;19.27;53.79;101679.13;5082472;27;45358;-68
2022/07/27 00:24:42;;;;;;;;;2.00;2.00;;;;;19.27;53.55;101671.06;5082269;27;46408;-68
2022/07/27 00:27:08;;;;;;;;;3.33;2.00;;;;;19.25;53.99;101661.34;5070461;27;68421;-68
2022/07/27 00:29:33;;;;;;;;;2.33;1.33;;;;;19.20;54.53;101668.91;5073286;28;57922;-67
2022/07/27 00:31:59;;;;;;;;;2.67;2.00;;;;;19.16;54.15;101671.84;5082314;27;45405;-67
2022/07/27 00:34:24;;;;;;;;;3.00;2.00;;;;;19.20;54.05;101677.00;5081364;27;68575;-67
2022/07/27 00:36:50;;;;;;;;;2.00;1.00;;;;;19.23;53.78;101674.94;5081123;27;66612;-67
2022/07/27 00:39:15;;;;;;;;;1.33;1.33;;;;;19.26;53.49;101666.63;5081926;27;50527;-67
2022/07/27 00:41:40;;;;;;;;;3.00;2.00;;;;;19.29;53.76;101662.84;5082285;27;45221;-67
2022/07/27 00:44:06;;;;;;;;;2.33;1.00;;;;;19.29;54.19;101662.84;5080897;27;67805;-67
2022/07/27 00:46:31;;;;;;;;;3.00;2.00;;;;;19.29;53.81;101663.69;5081714;27;45392;-67
2022/07/27 00:48:57;;;;;;;;;2.67;1.33;;;;;19.32;54.03;101665.31;5082106;27;45458;-67
2022/07/27 00:51:23;;;;;;;;;1.00;1.00;;;;;19.30;53.95;101662.72;5082050;27;45407;-67
2022/07/27 00:53:51;;;;;;;;;2.00;2.00;;;;;19.28;53.94;101670.09;5081839;27;46418;-66
2022/07/27 00:56:16;;;;;;;;;3.00;2.00;;;;;19.25;53.77;101662.19;5080575;28;45417;-68
2022/07/27 00:58:44;;;;;;;;;2.67;2.67;;;;;19.23;54.11;101663.28;5081084;27;60175;-67
2022/07/27 01:01:09;;;;;;;;;2.00;2.00;;;;;19.22;54.04;101664.28;5080550;28;45390;-67
2022/07/27 01:03:35;;;;;;;;;1.00;0.00;;;;;19.18;54.74;101661.78;5081490;27;46086;-67
2022/07/27 01:06:00;;;;;;;;;4.00;2.00;;;;;19.15;54.70;101659.34;5080367;27;64859;-67
2022/07/27 01:08:25;;;;;;;;;1.00;1.00;;;;;19.14;54.51;101652.22;5068161;27;45491;-66
2022/07/27 01:10:54;;;;;;;;;3.67;2.00;;;;;19.12;55.12;101661.38;5081349;28;45329;-67
2022/07/27 01:13:19;;;;;;;;;2.33;2.33;;;;;19.09;54.53;101651.69;5081274;27;45488;-66
2022/07/27 01:15:44;;;;;;;;;2.00;2.00;;;;;19.08;54.71;101660.72;5080449;27;71237;-67
2022/07/27 01:18:32;;;;;;;;;2.00;1.67;;;;;19.08;54.43;101655.34;5079629;28;56492;-66
2022/07/27 01:20:59;;;;;;;;;2.00;2.00;;;;;19.10;54.53;101656.09;5081439;27;45631;-66
2022/07/27 01:23:26;;;;;;;;;4.00;3.00;;;;;19.10;54.70;101645.31;5081170;27;46408;-67
2022/07/27 01:25:52;;;;;;;;;1.67;1.67;;;;;19.10;55.08;101647.13;5081079;27;45502;-66
2022/07/27 01:28:17;;;;;;;;;2.00;2.00;;;;;19.05;54.93;101646.66;5063552;28;45477;-67
2022/07/27 01:30:42;;;;;;;;;2.00;2.00;;;;;18.98;55.15;101639.00;5080276;27;63122;-68
2022/07/27 01:33:08;;;;;;;;;3.00;3.00;;;;;18.93;56.38;101633.06;5080181;27;72233;-68
2022/07/27 01:35:35;;;;;;;;;2.67;1.67;;;;;18.88;55.33;101634.31;5081068;28;45476;-67
2022/07/27 01:38:01;;;;;;;;;4.00;2.00;;;;;18.83;55.18;101635.53;5081014;27;45714;-68
2022/07/27 01:40:26;;;;;;;;;3.67;2.67;;;;;18.80;55.10;101635.75;5081246;27;45467;-68
2022/07/27 01:42:52;;;;;;;;;1.00;1.00;;;;;18.80;55.33;101638.44;5080793;27;45240;-68
2022/07/27 01:45:17;;;;;;;;;5.00;2.00;;;;;18.80;55.52;101641.16;5081047;28;45235;-68
2022/07/27 01:47:43;;;;;;;;;2.67;2.00;;;;;18.78;55.90;101636.84;5081115;27;45292;-68
2022/07/27 01:50:08;;;;;;;;;1.33;1.33;;;;;18.72;55.95;101634.56;5080625;27;53893;-68
2022/07/27 01:52:34;;;;;;;;;3.33;2.33;;;;;18.68;56.21;101634.81;5080589;27;45967;-67
2022/07/27 01:54:59;;;;;;;;;4.00;2.00;;;;;18.62;56.64;101629.84;5081197;27;45231;-68
2022/07/27 01:57:24;;;;;;;;;2.33;1.33;;;;;18.59;56.75;101632.78;5079940;27;64859;-67
2022/07/27 01:59:52;;;;;;;;;2.00;2.00;;;;;18.55;56.28;101625.00;5080036;27;66131;-67
2022/07/27 02:02:17;;;;;;;;;2.33;2.00;;;;;18.51;56.96;101627.91;5080629;27;46360;-67
2022/07/27 02:04:43;;;;;;;;;2.00;2.00;;;;;18.50;56.63;101628.03;5079983;27;65898;-67
2022/07/27 02:07:08;;;;;;;;;2.67;1.33;;;;;18.51;57.71;101624.34;5075781;28;60226;-68
2022/07/27 02:09:33;;;;;;;;;2.00;2.00;;;;;18.47;56.75;101620.16;5069101;28;59841;-67
2022/07/27 02:14:42;;;;;;;;;1.00;1.00;;;;;18.47;57.02;101631.81;5080492;28;45377;-68
2022/07/27 02:17:08;;;;;;;;;1.00;1.00;;;;;18.47;56.89;101625.53;5079032;27;59119;-69
2022/07/27 02:19:33;;;;;;;;;2.00;2.00;;;;;18.45;57.25;101625.66;5080906;27;45659;-69
2022/07/27 02:21:59;;;;;;;;;3.00;1.00;;;;;18.41;57.15;101636.72;5079735;27;62029;-67
2022/07/27 02:24:24;;;;;;;;;2.67;1.33;;;;;18.38;57.99;101631.56;5079677;27;66471;-67
2022/07/27 02:26:49;;;;;;;;;2.00;2.00;;;;;18.35;57.40;101628.16;5072161;27;45869;-67
2022/07/27 02:29:15;;;;;;;;;5.00;2.00;;;;;18.33;57.67;101634.59;5070314;28;57105;-67
2022/07/27 02:31:40;;;;;;;;;2.00;1.67;;;;;18.30;58.69;101635.69;5079805;27;52267;-67
2022/07/27 02:34:05;;;;;;;;;1.00;1.00;;;;;18.22;58.55;101629.94;5079555;27;65155;-67
2022/07/27 02:36:31;;;;;;;;;3.33;2.00;;;;;18.14;58.06;101633.16;5079401;27;65536;-67
2022/07/27 02:38:57;;;;;;;;;2.00;2.00;;;;;18.10;59.30;101636.19;5079726;27;62701;-68
2022/07/27 02:41:22;;;;;;;;;3.33;2.00;;;;;18.06;58.10;101637.38;5080125;27;45461;-68
2022/07/27 02:43:47;;;;;;;;;1.33;1.33;;;;;18.04;58.54;101639.28;5079954;27;45291;-67
2022/07/27 02:46:13;;;;;;;;;2.00;2.00;;;;;18.00;58.26;101644.03;5079600;27;53643;-68
2022/07/27 02:48:38;;;;;;;;;1.33;1.33;;;;;17.97;58.02;101637.00;5079468;27;62899;-67
2022/07/27 02:51:04;;;;;;;;;2.67;2.00;;;;;17.98;57.98;101635.22;5079382;27;60751;-67
2022/07/27 02:53:29;;;;;;;;;3.00;2.00;;;;;17.98;58.14;101636.06;5080085;27;45473;-67
2022/07/27 02:55:55;;;;;;;;;3.67;2.00;;;;;17.93;58.96;101640.88;5080252;27;45373;-67
2022/07/27 02:58:21;;;;;;;;;2.00;2.00;;;;;17.89;58.15;101633.13;5080264;27;45340;-67
2022/07/27 03:00:46;;;;;;;;;3.00;1.00;;;;;17.88;57.80;101634.91;5080132;27;46148;-67
2022/07/27 03:03:12;;;;;;;;;1.67;1.67;;;;;17.88;59.00;101621.47;5079993;27;45340;-67
2022/07/27 03:05:38;;;;;;;;;4.00;2.00;;;;;17.86;58.17;101631.50;5079834;27;45362;-67
2022/07/27 03:08:03;;;;;;;;;2.67;0.67;;;;;17.89;58.30;101628.56;5069470;27;45417;-67
2022/07/27 03:10:29;;;;;;;;;2.67;2.67;;;;;17.86;58.06;101624.28;5076348;28;46255;-67
2022/07/27 03:12:54;;;;;;;;;2.00;2.00;;;;;17.85;58.02;101627.91;5079642;27;45415;-67
2022/07/27 03:15:19;;;;;;;;;4.00;3.00;;;;;17.82;58.58;101625.44;5079026;27;64412;-67
2022/07/27 03:17:45;;;;;;;;;1.33;1.33;;;;;17.79;58.36;101630.16;5079155;27;62895;-67
2022/07/27 03:20:11;;;;;;;;;2.00;2.00;;;;;17.76;58.21;101622.31;5078701;27;71532;-67
2022/07/27 03:22:36;;;;;;;;;2.67;2.00;;;;;17.71;58.49;101621.75;5079722;27;45446;-67
2022/07/27 03:25:02;;;;;;;;;2.67;2.00;;;;;17.68;58.19;101612.91;5078800;27;66288;-67
2022/07/27 03:27:28;;;;;;;;;1.00;1.00;;;;;17.69;58.82;101620.03;5066118;27;45323;-68
2022/07/27 03:29:53;;;;;;;;;1.00;1.00;;;;;17.71;58.23;101613.69;5077879;28;46188;-68
2022/07/27 03:32:19;;;;;;;;;2.00;2.00;;;;;17.72;58.47;101624.34;5083300;27;45298;-67
2022/07/27 03:34:44;;;;;;;;;1.00;0.00;;;;;17.73;58.54;101625.19;5083272;27;45298;-67
2022/07/27 03:37:09;;;;;;;;;3.67;2.00;;;;;17.72;58.47;101621.66;5082252;27;62590;-67
2022/07/27 03:39:35;;;;;;;;;3.33;2.67;;;;;17.67;58.79;101626.47;5082216;27;67929;-67
2022/07/27 03:42:00;;;;;;;;;2.67;1.67;;;;;17.62;58.40;101617.84;5082956;27;45382;-67
2022/07/27 03:44:26;;;;;;;;;2.00;1.33;;;;;17.62;58.88;101625.91;5082870;27;45334;-67
2022/07/27 03:46:51;;;;;;;;;1.00;1.00;;;;;17.61;58.21;101621.50;5082330;27;62095;-66
2022/07/27 03:49:17;;;;;;;;;2.67;2.67;;;;;17.59;58.34;101628.81;5082003;27;68338;-66
2022/07/27 03:51:42;;;;;;;;;2.67;2.00;;;;;17.54;58.11;101618.38;5082695;27;45357;-66
2022/07/27 03:54:08;;;;;;;;;3.00;1.33;;;;;17.52;58.40;101618.47;5082826;27;45417;-67
2022/07/27 03:56:33;;;;;;;;;1.33;1.33;;;;;17.51;58.62;101630.19;5082857;27;45493;-67
2022/07/27 03:58:59;;;;;;;;;2.67;1.00;;;;;17.49;58.44;101617.81;5082624;27;45515;-67
2022/07/27 04:01:24;;;;;;;;;1.00;1.00;;;;;17.48;58.26;101624.13;5082124;27;60658;-67
2022/07/27 04:03:50;;;;;;;;;1.67;1.67;;;;;17.48;57.98;101619.66;5081839;27;65076;-67
2022/07/27 04:06:15;;;;;;;;;1.67;1.67;;;;;17.49;58.33;101623.19;5081701;27;65715;-67
2022/07/27 04:08:40;;;;;;;;;2.33;2.33;;;;;17.47;58.26;101620.59;5068711;27;46119;-67
2022/07/27 04:11:06;;;;;;;;;4.00;2.00;;;;;17.48;58.00;101616.97;5081807;27;67359;-67
2022/07/27 04:13:31;;;;;;;;;1.00;1.00;;;;;17.50;58.19;101628.44;5081552;27;62044;-67
2022/07/27 04:15:56;;;;;;;;;1.00;1.00;;;;;17.50;57.90;101625.75;5081969;27;61901;-68
2022/07/27 04:18:23;;;;;;;;;1.00;1.00;;;;;17.52;57.51;101622.97;5082356;27;46048;-67
2022/07/27 04:20:48;;;;;;;;;2.00;2.00;;;;;17.51;57.58;101627.50;5082579;27;45420;-68
2022/07/27 04:23:13;;;;;;;;;1.00;1.00;;;;;17.52;57.29;101620.28;5081372;27;64127;-68
2022/07/27 04:25:39;;;;;;;;;1.00;1.00;;;;;17.51;57.18;101624.81;5082442;27;45296;-67
2022/07/27 04:28:04;;;;;;;;;2.67;1.33;;;;;17.53;57.37;101620.19;5063991;27;46166;-67
2022/07/27 04:30:31;;;;;;;;;1.00;1.00;;;;;17.52;56.62;101622.97;5082261;27;45571;-67
2022/07/27 04:32:57;;;;;;;;;2.00;2.00;;;;;17.49;57.28;101621.34;5082352;28;45349;-67
2022/07/27 04:35:22;;;;;;;;;1.00;1.00;;;;;17.49;56.92;101623.19;5082184;27;45550;-68
2022/07/27 04:37:48;;;;;;;;;1.33;1.33;;;;;17.48;56.80;101624.13;5081949;27;46028;-68
2022/07/27 04:40:13;;;;;;;;;2.00;2.00;;;;;17.45;56.72;101627.03;5081346;27;45723;-68
2022/07/27 04:42:38;;;;;;;;;3.00;2.00;;;;;17.40;56.79;101621.97;5082055;27;45384;-67
2022/07/27 04:45:04;;;;;;;;;1.33;1.00;;;;;17.35;56.39;101626.78;5082214;27;45504;-67
2022/07/27 04:47:30;;;;;;;;;2.00;2.00;;;;;17.34;56.80;101625.91;5081864;27;45492;-67
2022/07/27 04:49:55;;;;;;;;;3.00;1.67;;;;;17.33;56.60;101626.88;5081047;27;64978;-67
2022/07/27 04:52:21;;;;;;;;;1.00;1.00;;;;;17.33;56.63;101631.41;5082030;27;45418;-67
2022/07/27 04:54:51;;;;;;;;;2.67;2.67;;;;;17.32;56.16;101627.84;5080334;28;45561;-67
2022/07/27 04:57:16;;;;;;;;;1.00;1.00;;;;;17.34;56.24;101628.63;5081542;27;46369;-67
2022/07/27 04:59:41;;;;;;;;;1.33;1.33;;;;;17.32;56.45;101621.59;5080920;27;65610;-67
2022/07/27 05:02:06;;;;;;;;;1.33;1.00;;;;;17.31;56.53;101623.44;5079453;28;67195;-67
2022/07/27 05:04:32;;;;;;;;;3.33;2.00;;;;;17.25;56.16;101625.66;5079880;28;65039;-67
2022/07/27 05:06:57;;;;;;;;;2.33;2.33;;;;;17.18;56.66;101638.63;5079330;27;72731;-67
2022/07/27 05:09:22;;;;;;;;;3.33;2.00;;;;;17.10;56.53;101627.53;5069026;28;45392;-66
2022/07/27 05:11:48;;;;;;;;;2.00;2.00;;;;;17.02;57.11;101631.56;5080999;27;58249;-67
2022/07/27 05:14:13;;;;;;;;;3.00;2.00;;;;;16.97;57.09;101635.50;5080705;27;63926;-67
2022/07/27 05:16:39;;;;;;;;;2.33;2.33;;;;;16.91;57.61;101641.25;5081123;27;51284;-67
2022/07/27 05:19:05;;;;;;;;;3.00;1.00;;;;;16.86;57.47;101637.00;5081451;27;45811;-67
2022/07/27 05:21:30;;;;;;;;;3.33;2.00;;;;;16.86;57.42;101641.53;5081292;27;45473;-67
2022/07/27 05:23:55;;;;;;;;;6.00;3.00;;;;;16.84;57.80;101646.13;5081380;27;45406;-67
2022/07/27 05:26:21;;;;;;;;;4.00;2.67;;;;;16.85;57.54;101640.66;5076623;27;45343;-68
2022/07/27 05:28:47;;;;;;;;;4.00;2.00;;;;;16.84;57.79;101643.44;5068402;28;45650;-67
2022/07/27 05:31:12;;;;;;;;;2.00;2.00;;;;;16.90;57.34;101648.47;5081079;27;45429;-67
2022/07/27 05:33:38;;;;;;;;;2.00;2.00;;;;;17.07;57.25;101647.41;5080586;27;54542;-67
2022/07/27 05:36:03;;;;;;;;;0.00;0.00;;;;;17.33;56.57;101651.06;5080109;27;72598;-68
2022/07/27 05:38:28;;;;;;;;;2.67;2.67;;;;;17.45;56.32;101653.94;5080462;27;57717;-67
2022/07/27 05:40:54;;;;;;;;;2.00;2.00;;;;;17.46;56.21;101651.13;5080984;27;45350;-67
2022/07/27 05:43:19;;;;;;;;;3.00;1.67;;;;;17.44;56.00;101647.72;5080312;27;60840;-68
2022/07/27 05:45:44;;;;;;;;;1.67;1.67;;;;;17.40;56.13;101656.06;5080462;27;59842;-68
2022/07/27 05:48:10;;;;;;;;;2.00;2.00;;;;;17.40;55.86;101653.38;5080930;27;45429;-68
2022/07/27 05:50:35;;;;;;;;;5.67;4.00;;;;;17.35;55.78;101654.53;5080678;27;53674;-67
2022/07/27 05:53:02;;;;;;;;;8.67;3.00;;;;;17.32;56.21;101652.03;5079724;27;45387;-67
2022/07/27 05:55:27;;;;;;;;;3.00;3.00;;;;;17.26;56.01;101656.94;5081041;27;46349;-67
2022/07/27 05:57:53;;;;;;;;;2.00;2.00;;;;;17.25;55.89;101658.78;5080560;27;45311;-67
2022/07/27 06:00:18;;;;;;;;;3.00;3.00;;;;;17.27;56.28;101651.47;5079962;27;64191;-68
2022/07/27 06:02:44;;;;;;;;;1.67;1.67;;;;;17.29;56.07;101660.31;5080032;27;61729;-67
2022/07/27 06:05:09;;;;;;;;;3.00;3.00;;;;;17.35;56.65;101667.09;5079809;27;72609;-68
2022/07/27 06:10:18;;;;;;;;;0.67;0.00;;;;;17.45;55.90;101653.94;5076088;28;45342;-68
2022/07/27 06:12:45;;;;;;;;;4.33;3.00;;;;;17.51;55.80;101656.22;5079665;27;60393;-68
2022/07/27 06:15:12;;;;;;;;;2.00;2.00;;;;;17.59;55.39;101664.66;5080433;27;45580;-67
2022/07/27 06:17:38;;;;;;;;;5.33;3.00;;;;;17.66;55.47;101665.09;5080391;27;45240;-67
2022/07/27 06:20:05;;;;;;;;;4.67;2.00;;;;;17.65;55.28;101658.88;5080180;27;45759;-67
2022/07/27 06:22:30;;;;;;;;;4.67;3.00;;;;;17.73;55.52;101662.84;5080348;27;45315;-68
2022/07/27 06:24:56;;;;;;;;;3.00;2.00;;;;;17.80;55.23;101659.66;5079541;27;61862;-67
2022/07/27 06:27:22;;;;;;;;;3.00;3.00;;;;;17.85;55.03;101660.22;5067168;27;45491;-67
2022/07/27 06:29:47;;;;;;;;;3.00;1.33;;;;;17.90;54.89;101659.03;5076056;28;45369;-67
2022/07/27 06:32:12;;;;;;;;;3.00;3.00;;;;;18.01;54.88;101651.97;5079535;27;61597;-67
2022/07/27 06:34:38;;;;;;;;;4.00;4.00;;;;;18.10;54.40;101655.88;5079988;27;46999;-67
2022/07/27 06:37:03;;;;;;;;;2.00;2.00;;;;;18.19;54.55;101657.09;5080147;27;45232;-67
2022/07/27 06:39:28;;;;;;;;;2.00;2.00;;;;;18.31;54.37;101658.91;5079570;27;63303;-68
2022/07/27 06:41:54;;;;;;;;;3.00;3.00;;;;;18.43;54.02;101667.97;5080130;27;45409;-67
2022/07/27 06:44:20;;;;;;;;;3.33;2.00;;;;;18.54;53.53;101655.59;5079535;27;47039;-68
2022/07/27 06:46:45;;;;;;;;;2.00;2.00;;;;;18.65;53.49;101667.31;5079815;27;45333;-68
2022/07/27 06:49:10;;;;;;;;;5.00;3.00;;;;;18.81;53.47;101666.25;5080015;27;45454;-68
2022/07/27 06:51:37;;;;;;;;;2.00;2.00;;;;;18.94;52.39;101659.06;5079228;27;62520;-67
2022/07/27 06:54:03;;;;;;;;;4.00;2.33;;;;;19.06;52.62;101664.50;5079747;28;46207;-68
2022/07/27 06:56:29;;;;;;;;;3.00;3.00;;;;;19.18;51.92;101664.50;5080163;27;45417;-68
2022/07/27 06:58:55;;;;;;;;;2.00;2.00;;;;;19.31;51.38;101677.09;5079789;28;45352;-67
2022/07/27 07:01:21;;;;;;;;;2.33;2.33;;;;;19.44;51.75;101674.34;5079736;27;45498;-67
2022/07/27 07:03:46;;;;;;;;;3.67;2.33;;;;;19.60;51.21;101671.38;5080765;27;45548;-68
2022/07/27 07:06:12;;;;;;;;;1.67;1.67;;;;;19.81;51.11;101672.47;5083332;27;45431;-68
2022/07/27 07:08:37;;;;;;;;;2.00;2.00;;;;;19.99;51.14;101674.75;5069623;27;45603;-67
2022/07/27 07:11:03;;;;;;;;;2.00;2.00;;;;;20.25;50.52;101677.31;5083254;27;45407;-72
2022/07/27 07:13:28;;;;;;;;;4.33;4.00;;;;;20.49;50.13;101678.09;5069381;27;46179;-69
2022/07/27 07:15:54;;;;;;;;;3.67;2.00;;;;;20.79;49.58;101682.09;5083205;27;45388;-69
2022/07/27 07:18:19;;;;;;;;;4.33;4.00;;;;;21.07;48.95;101685.28;5082520;27;61345;-70
2022/07/27 07:20:44;;;;;;;;;2.67;2.00;;;;;21.33;48.29;101676.88;5082984;27;45501;-69
2022/07/27 07:23:10;;;;;;;;;3.33;3.33;;;;;21.59;48.61;101673.88;5082168;27;61949;-69
2022/07/27 07:25:36;;;;;;;;;5.00;3.00;;;;;21.86;46.34;101673.41;5083015;27;45427;-70
2022/07/27 07:28:03;;;;;;;;;4.00;2.00;;;;;22.20;45.92;101675.97;5065686;27;45359;-70
2022/07/27 07:30:28;;;;;;;;;4.00;2.00;;;;;22.52;44.29;101668.78;5082850;27;45342;-70
2022/07/27 07:32:54;;;;;;;;;2.00;2.00;;;;;22.85;43.64;101670.38;5082806;27;46073;-70
2022/07/27 07:35:20;;;;;;;;;4.00;4.00;;;;;23.22;43.85;101677.97;5082987;27;45238;-70
2022/07/27 07:37:45;;;;;;;;;3.00;2.00;;;;;23.58;43.42;101681.03;5081950;27;62680;-70
2022/07/27 07:40:11;;;;;;;;;4.00;2.00;;;;;23.93;42.38;101673.34;5082450;27;57893;-71
2022/07/27 07:42:55;;;;;;;;;3.00;3.00;;;;;24.24;40.23;101676.75;5082577;27;45483;-71
2022/07/27 07:45:22;;;;;;;;;5.33;4.00;;;;;24.57;40.71;101673.69;5082666;27;45385;-71
2022/07/27 07:47:48;;;;;;;;;3.33;3.00;;;;;24.92;39.35;101678.44;5082677;27;45436;-72
2022/07/27 07:50:14;;;;;;;;;3.00;2.00;;;;;25.32;39.60;101676.38;5082776;27;45746;-71
2022/07/27 07:52:39;;;;;;;;;1.67;1.00;;;;;25.83;37.91;101674.03;5082277;27;46183;-72
2022/07/27 07:55:05;;;;;;;;;7.00;4.00;;;;;26.32;37.38;101670.91;5081490;27;69829;-71
2022/07/27 07:57:31;;;;;;;;;2.33;2.33;;;;;26.55;36.13;101663.00;5082735;27;45353;-71
2022/07/27 07:59:56;;;;;;;;;2.67;2.33;;;;;26.82;37.15;101663.03;5081758;27;60025;-71
2022/07/27 08:02:21;;;;;;;;;1.33;1.00;;;;;27.31;35.69;101663.22;5081634;27;68220;-71
2022/07/27 08:04:47;;;;;;;;;5.00;3.00;;;;;27.77;34.48;101668.28;5082041;27;56854;-71
2022/07/27 08:07:12;;;;;;;;;3.00;2.00;;;;;28.30;33.51;101676.16;5078064;27;64024;-71
2022/07/27 08:09:38;;;;;;;;;2.00;2.00;;;;;28.81;34.26;101668.53;5071307;28;57746;-72
2022/07/27 08:12:03;;;;;;;;;5.00;4.00;;;;;29.10;32.15;101669.78;5081960;27;45176;-72
2022/07/27 08:14:29;;;;;;;;;1.00;1.00;;;;;29.35;31.83;101672.44;5082055;27;45226;-71
2022/07/27 08:16:54;;;;;;;;;5.33;5.33;;;;;29.70;30.78;101670.16;5081412;27;45783;-71
2022/07/27 08:19:19;;;;;;;;;1.00;1.00;;;;;29.73;31.14;101667.03;5081535;27;65726;-72
2022/07/27 08:21:45;;;;;;;;;1.00;1.00;;;;;29.97;30.51;101668.75;5081004;27;70308;-71
2022/07/27 08:24:10;;;;;;;;;2.67;2.67;;;;;30.40;30.43;101670.06;5081389;27;65743;-71
2022/07/27 08:26:35;;;;;;;;;4.33;3.33;;;;;30.74;30.20;101666.81;5075786;27;45287;-72
2022/07/27 08:29:01;;;;;;;;;4.33;3.00;;;;;31.17;28.57;101664.22;5070379;28;66082;-70
2022/07/27 08:31:26;;;;;;;;;2.25;2.25;;;;;31.42;28.96;101661.13;5080989;27;66241;-71
2022/07/27 08:33:51;;;;;;;;;3.67;3.67;;;;;31.56;29.51;101667.59;5082209;27;45380;-71
2022/07/27 08:36:17;;;;;;;;;4.50;3.75;;;;;31.88;28.02;101664.56;5082043;27;45408;-72
2022/07/27 08:38:42;;;;;;;;;6.25;4.00;;;;;31.93;26.69;101671.16;5081979;27;45496;-71
2022/07/27 08:41:09;;;;;;;;;3.00;1.33;;;;;31.90;26.91;101667.97;5081526;27;57163;-71
2022/07/27 08:43:35;;;;;;;;;3.00;3.00;;;;;32.10;28.23;101663.47;5081827;27;45389;-71
2022/07/27 08:46:00;;;;;;;;;6.00;5.00;;;;;32.55;27.83;101654.91;5080391;28;45444;-71
2022/07/27 08:48:28;;;;;;;;;2.33;2.33;;;;;33.05;25.31;101657.53;5081438;27;45511;-71
2022/07/27 08:50:54;;;;;;;;;3.33;3.33;;;;;33.15;25.96;101663.53;5081553;27;46353;-71
2022/07/27 08:53:20;;;;;;;;;4.00;4.00;;;;;33.26;24.90;101655.72;5081214;27;45308;-71
2022/07/27 08:55:46;;;;;;;;;3.00;3.00;;;;;33.42;25.35;101660.03;5081571;27;45244;-71
2022/07/27 08:58:13;;;;;;;;;2.00;2.00;;;;;33.68;24.56;101656.44;5081445;27;45359;-71
2022/07/27 09:00:42;;;;;;;;;0.00;0.00;;;;;34.26;24.48;101664.13;5081338;27;45551;-71
2022/07/27 09:03:10;;;;;;;;;3.33;3.33;;;;;34.27;23.72;101656.69;5081685;27;45498;-71
2022/07/27 09:05:42;;;;;;;;;2.00;2.00;;;;;34.28;22.38;101658.38;5081827;27;45450;-71
2022/07/27 09:08:13;;;;;;;;;5.00;3.00;;;;;34.52;24.25;101656.03;5070407;27;45387;-70
2022/07/27 09:10:39;;;;;;;;;4.00;3.00;;;;;35.00;22.88;101657.59;5079321;28;46168;-71
2022/07/27 09:13:24;;;;;;;;;3.00;3.00;;;;;35.30;23.23;101657.03;5081244;27;45297;-72
2022/07/27 09:15:55;;;;;;;;;2.50;2.50;;;;;35.52;22.82;101657.56;5081480;27;45334;-72
2022/07/27 09:18:26;;;;;;;;;3.00;3.00;;;;;35.73;21.57;101653.56;5081344;27;45231;-70
2022/07/27 09:21:13;;;;;;;;;3.33;3.33;;;;;35.64;22.06;101661.28;5081325;27;45425;-72
2022/07/27 09:23:41;;;;;;;;;1.00;1.00;;;;;35.62;21.79;101660.69;5081076;27;45337;-72
2022/07/27 09:26:18;;;;;;;;;3.67;3.67;;;;;35.74;22.68;101660.81;5078694;27;45406;-71
2022/07/27 09:28:44;;;;;;;;;2.00;2.00;;;;;36.00;20.82;101664.47;5053962;28;45545;-71
2022/07/27 09:31:14;;;;;;;;;3.33;3.33;;;;;36.13;21.61;101656.03;5080802;28;46285;-72
2022/07/27 09:33:51;;;;;;;;;3.00;2.33;;;;;36.45;20.20;101658.72;5080872;28;45384;-72
2022/07/27 09:36:19;;;;;;;;;0.67;0.67;;;;;36.26;20.35;101661.44;5081070;27;45304;-71
2022/07/27 09:39:06;;;;;;;;;2.50;2.00;;;;;35.89;20.60;101644.75;5081049;27;45496;-72
2022/07/27 09:41:43;;;;;;;;;2.00;2.00;;;;;36.15;20.78;101650.25;5080802;27;46018;-72
2022/07/27 09:44:09;;;;;;;;;2.00;2.00;;;;;36.50;19.63;101658.03;5080641;27;45361;-72
2022/07/27 09:46:37;;;;;;;;;1.67;1.67;;;;;36.71;19.73;101656.72;5080761;27;45249;-73
2022/07/27 09:49:03;;;;;;;;;2.00;2.00;;;;;37.04;19.60;101652.69;5080991;27;45488;-72
2022/07/27 09:51:30;;;;;;;;;1.00;1.00;;;;;37.67;20.33;101651.38;5080505;27;45503;-73
2022/07/27 09:53:57;;;;;;;;;1.00;1.00;;;;;38.16;18.11;101655.91;5080729;27;45401;-73
2022/07/27 09:56:29;;;;;;;;;1.33;1.33;;;;;38.23;19.94;101654.72;5080716;27;45358;-73
2022/07/27 09:59:00;;;;;;;;;1.00;1.00;;;;;38.44;19.47;101654.38;5080469;27;45538;-72
2022/07/27 10:01:31;;;;;;;;;1.00;1.00;;;;;38.85;19.50;101647.78;5080649;27;46197;-72
2022/07/27 10:03:59;;;;;;;;;0.00;0.00;;;;;38.96;17.37;101648.84;5080761;27;45464;-73
2022/07/27 10:06:25;;;;;;;;;1.33;0.00;;;;;38.95;18.93;101644.34;5080387;27;45303;-72
2022/07/27 10:08:52;;;;;;;;;1.33;1.33;;;;;38.74;16.47;101639.50;5066813;27;45588;-72
2022/07/27 10:11:19;;;;;;;;;6.67;2.00;;;;;38.74;18.01;101637.53;5080225;27;46310;-73
2022/07/27 10:13:45;;;;;;;;;1.00;1.00;;;;;38.90;18.27;101640.66;5080213;27;45462;-73
2022/07/27 10:16:15;;;;;;;;;0.00;0.00;;;;;39.12;17.55;101646.34;5080513;27;45368;-73
2022/07/27 10:19:17;;;;;;;;;0.00;0.00;;;;;39.49;16.97;101638.47;5080379;27;45381;-72
2022/07/27 10:21:45;;;;;;;;;0.33;0.33;;;;;39.76;17.76;101628.63;5079908;27;46356;-73
2022/07/27 10:24:23;;;;;;;;;2.00;2.00;;;;;40.02;16.21;101630.69;5080101;27;45468;-73
2022/07/27 10:26:48;;;;;;;;;2.00;2.00;;;;;39.81;16.19;101632.31;5071974;27;45382;-73
2022/07/27 10:29:19;;;;;;;;;1.67;1.67;;;;;39.64;15.02;101623.16;5070313;28;55066;-74
2022/07/27 10:31:50;;;;;;;;;3.33;0.33;;;;;39.76;16.31;101642.53;5079871;27;46108;-72
2022/07/27 10:34:40;;;;;;;;;2.00;0.67;;;;;39.75;15.04;101630.53;5080149;28;45266;-71
2022/07/27 10:37:14;;;;;;;;;1.67;1.00;;;;;39.77;15.45;101642.28;5080037;27;45451;-71
2022/07/27 10:39:44;;;;;;;;;1.00;1.00;;;;;39.62;14.79;101631.72;5079332;27;45571;-72
2022/07/27 10:42:20;;;;;;;;;3.00;0.33;;;;;39.62;15.28;101631.72;5079756;27;47170;-75
2022/07/27 10:44:57;;;;;;;;;0.67;0.67;;;;;39.49;15.31;101630.09;5080008;27;45411;-72
2022/07/27 10:47:39;;;;;;;;;0.67;0.00;;;;;39.56;14.83;101637.44;5080182;28;45482;-73
2022/07/27 10:50:16;;;;;;;;;1.33;1.33;;;;;40.02;15.68;101624.28;5079984;27;45465;-74
2022/07/27 10:52:44;;;;;;;;;0.75;0.75;;;;;40.44;16.16;101626.56;5079584;27;46111;-73
2022/07/27 10:55:28;;;;;;;;;1.00;1.00;;;;;40.79;15.47;101617.00;5079788;27;45181;-72
2022/07/27 10:58:01;;;;;;;;;2.50;0.75;;;;;40.98;15.10;101617.53;5079723;27;45300;-74
2022/07/27 11:00:48;;;;;;;;;1.00;1.00;;;;;41.15;14.43;101619.38;5079609;27;45528;-72
2022/07/27 11:03:31;;;;;;;;;0.00;0.00;;;;;40.61;14.20;101614.56;5079884;27;45442;-73
2022/07/27 11:05:58;;;;;;;;;0.00;0.00;;;;;40.13;14.60;101608.59;5079575;27;45562;-71
2022/07/27 11:08:32;;;;;;;;;2.00;1.00;;;;;39.98;14.47;101607.25;5066589;27;45364;-73
2022/07/27 11:10:58;;;;;;;;;0.00;0.00;;;;;39.91;14.66;101606.59;5053678;28;45174;-72
2022/07/27 11:13:25;;;;;;;;;3.00;2.00;;;;;39.73;14.94;101606.84;5079191;27;46270;-74
2022/07/27 11:16:01;;;;;;;;;2.33;1.00;;;;;39.86;16.10;101606.53;5079397;27;45381;-72
2022/07/27 11:18:30;;;;;;;;;1.00;1.00;;;;;40.25;15.75;101595.41;5079719;27;45488;-74
2022/07/27 11:21:27;;;;;;;;;1.00;1.00;;;;;40.02;15.02;101586.16;5079891;27;45443;-71
2022/07/27 11:23:53;;;;;;;;;1.33;1.33;;;;;39.18;15.41;101595.34;5079339;27;46234;-72
2022/07/27 11:26:20;;;;;;;;;0.00;0.00;;;;;38.70;16.43;101591.88;5075176;27;45402;-71
2022/07/27 11:28:46;;;;;;;;;0.00;0.00;;;;;38.77;16.23;101584.25;5066517;28;45402;-73